4A6

Scottsboro Municipal-Word Field Airport

Scottsboro, Alabama, USA
METAR K4A6 210935Z AUTO 05010KT 10SM FEW029 SCT037 BKN046 26/26 A2990 RMK AO2 LTG DSNT NE
Observed Flight Rules
Jul-21 @ 09:35 UTC (18 minutes ago) Visual Flight Rules
Wind Visibility Clouds
50° at 10 knots 10 miles
  • Few at 2,900' AGL
  • Scattered at 3,700' AGL
  • Broken at 4,600' AGL
Temperatures Readings
Current 26°C / 79°F
Dewpoint 26°C / 79°F
Humidity 100%
Altimeter 29.9" Hg
Pressure 1013 hPa
Elevation 198
METAR K4A6 210935Z AUTO 05010KT 10SM FEW029 SCT037 BKN046 26/26 A2990 RMK AO2 LTG DSNT NE
Observed Flight Rules
Jul-21 @ 09:35 UTC
(18 minutes ago)
VFR
Wind Visibility
50° at 10 knots 10 miles
Clouds
  • Few at 2,900' AGL
  • Scattered at 3,700' AGL
  • Broken at 4,600' AGL
Temperature Dewpoint
26°C / 79°F 26°C / 79°F
Humidity Altimeter Pressure
100% 29.9" Hg 1013 hPa